sensor_id;sensor_type;location;lat;lon;timestamp;temperature;humidity
16700;DHT22;8466;52.286;21.124;2022-09-09T00:00:37;12.60;99.90
16700;DHT22;8466;52.286;21.124;2022-09-09T00:03:14;12.60;99.90
16700;DHT22;8466;52.286;21.124;2022-09-09T00:05:51;12.50;99.90
16700;DHT22;8466;52.286;21.124;2022-09-09T00:08:28;12.50;99.90
16700;DHT22;8466;52.286;21.124;2022-09-09T00:11:04;12.50;99.90
16700;DHT22;8466;52.286;21.124;2022-09-09T00:13:38;12.40;99.90
16700;DHT22;8466;52.286;21.124;2022-09-09T00:16:15;12.50;99.90
16700;DHT22;8466;52.286;21.124;2022-09-09T00:18:53;12.50;99.90
16700;DHT22;8466;52.286;21.124;2022-09-09T00:21:25;12.50;99.90
16700;DHT22;8466;52.286;21.124;2022-09-09T00:23:58;12.40;99.90
16700;DHT22;8466;52.286;21.124;2022-09-09T00:26:32;12.40;99.90
16700;DHT22;8466;52.286;21.124;2022-09-09T00:29:10;12.40;99.90
16700;DHT22;8466;52.286;21.124;2022-09-09T00:31:42;12.30;99.90
16700;DHT22;8466;52.286;21.124;2022-09-09T00:34:13;12.20;99.90
16700;DHT22;8466;52.286;21.124;2022-09-09T00:36:43;12.20;99.90
16700;DHT22;8466;52.286;21.124;2022-09-09T00:39:27;12.20;99.90
16700;DHT22;8466;52.286;21.124;2022-09-09T00:42:08;12.20;99.90
16700;DHT22;8466;52.286;21.124;2022-09-09T00:44:39;12.20;99.90
16700;DHT22;8466;52.286;21.124;2022-09-09T00:47:23;12.10;99.90
16700;DHT22;8466;52.286;21.124;2022-09-09T00:50:01;12.10;99.90
16700;DHT22;8466;52.286;21.124;2022-09-09T00:52:36;12.10;99.90
16700;DHT22;8466;52.286;21.124;2022-09-09T00:55:15;12.10;99.90
16700;DHT22;8466;52.286;21.124;2022-09-09T00:57:46;12.10;99.90
16700;DHT22;8466;52.286;21.124;2022-09-09T01:00:22;12.10;99.90
16700;DHT22;8466;52.286;21.124;2022-09-09T01:03:03;12.10;99.90
16700;DHT22;8466;52.286;21.124;2022-09-09T01:05:44;12.10;99.90
16700;DHT22;8466;52.286;21.124;2022-09-09T01:08:24;12.00;99.90
16700;DHT22;8466;52.286;21.124;2022-09-09T01:10:59;12.00;99.90
16700;DHT22;8466;52.286;21.124;2022-09-09T01:13:31;12.10;99.90
16700;DHT22;8466;52.286;21.124;2022-09-09T01:16:03;12.00;99.90
16700;DHT22;8466;52.286;21.124;2022-09-09T01:18:34;12.10;99.90
16700;DHT22;8466;52.286;21.124;2022-09-09T01:21:08;12.10;99.90
16700;DHT22;8466;52.286;21.124;2022-09-09T01:23:45;12.10;99.90
16700;DHT22;8466;52.286;21.124;2022-09-09T01:26:23;12.10;99.90
16700;DHT22;8466;52.286;21.124;2022-09-09T01:28:53;12.10;99.90
16700;DHT22;8466;52.286;21.124;2022-09-09T01:31:28;12.10;99.90
16700;DHT22;8466;52.286;21.124;2022-09-09T01:33:58;12.10;99.90
16700;DHT22;8466;52.286;21.124;2022-09-09T01:36:33;12.10;99.90
16700;DHT22;8466;52.286;21.124;2022-09-09T01:39:04;12.10;99.90
16700;DHT22;8466;52.286;21.124;2022-09-09T01:41:34;12.00;99.90
16700;DHT22;8466;52.286;21.124;2022-09-09T01:44:03;12.10;99.90
16700;DHT22;8466;52.286;21.124;2022-09-09T01:46:32;12.10;99.90
16700;DHT22;8466;52.286;21.124;2022-09-09T01:49:03;12.10;99.90
16700;DHT22;8466;52.286;21.124;2022-09-09T01:51:32;12.10;99.90
16700;DHT22;8466;52.286;21.124;2022-09-09T01:54:01;12.10;99.90
16700;DHT22;8466;52.286;21.124;2022-09-09T01:56:40;12.00;99.90
16700;DHT22;8466;52.286;21.124;2022-09-09T01:59:25;12.00;99.90
16700;DHT22;8466;52.286;21.124;2022-09-09T02:02:07;12.00;99.90
16700;DHT22;8466;52.286;21.124;2022-09-09T02:04:39;12.00;99.90
16700;DHT22;8466;52.286;21.124;2022-09-09T02:07:17;12.00;99.90
16700;DHT22;8466;52.286;21.124;2022-09-09T02:09:54;12.00;99.90
16700;DHT22;8466;52.286;21.124;2022-09-09T02:12:28;12.10;99.90
16700;DHT22;8466;52.286;21.124;2022-09-09T02:15:02;12.10;99.90
16700;DHT22;8466;52.286;21.124;2022-09-09T02:17:34;12.10;99.90
16700;DHT22;8466;52.286;21.124;2022-09-09T02:20:06;12.10;99.90
16700;DHT22;8466;52.286;21.124;2022-09-09T02:22:37;12.10;99.90
16700;DHT22;8466;52.286;21.124;2022-09-09T02:25:09;12.10;99.90
16700;DHT22;8466;52.286;21.124;2022-09-09T02:27:42;12.20;99.90
16700;DHT22;8466;52.286;21.124;2022-09-09T02:30:12;12.20;99.90
16700;DHT22;8466;52.286;21.124;2022-09-09T02:32:43;12.20;99.90
16700;DHT22;8466;52.286;21.124;2022-09-09T02:35:15;12.20;99.90
16700;DHT22;8466;52.286;21.124;2022-09-09T02:37:45;12.20;99.90
16700;DHT22;8466;52.286;21.124;2022-09-09T02:40:15;12.10;99.90
16700;DHT22;8466;52.286;21.124;2022-09-09T02:42:47;12.10;99.90
16700;DHT22;8466;52.286;21.124;2022-09-09T02:45:19;12.20;99.90
16700;DHT22;8466;52.286;21.124;2022-09-09T02:47:52;12.20;99.90
16700;DHT22;8466;52.286;21.124;2022-09-09T02:50:29;12.20;99.90
16700;DHT22;8466;52.286;21.124;2022-09-09T02:53:07;12.20;99.90
16700;DHT22;8466;52.286;21.124;2022-09-09T02:55:39;12.20;99.90
16700;DHT22;8466;52.286;21.124;2022-09-09T02:58:13;12.20;99.90
16700;DHT22;8466;52.286;21.124;2022-09-09T03:00:45;12.20;99.90
16700;DHT22;8466;52.286;21.124;2022-09-09T03:03:15;12.20;99.90
16700;DHT22;8466;52.286;21.124;2022-09-09T03:05:44;12.30;99.90
16700;DHT22;8466;52.286;21.124;2022-09-09T03:08:13;12.30;99.90
16700;DHT22;8466;52.286;21.124;2022-09-09T03:10:42;12.30;99.90
16700;DHT22;8466;52.286;21.124;2022-09-09T03:13:12;12.30;99.90
16700;DHT22;8466;52.286;21.124;2022-09-09T03:15:42;12.30;99.90
16700;DHT22;8466;52.286;21.124;2022-09-09T03:18:11;12.40;99.90
16700;DHT22;8466;52.286;21.124;2022-09-09T03:20:40;12.30;99.90
16700;DHT22;8466;52.286;21.124;2022-09-09T03:23:10;12.30;99.90
16700;DHT22;8466;52.286;21.124;2022-09-09T03:25:47;12.30;99.90
16700;DHT22;8466;52.286;21.124;2022-09-09T03:28:17;12.30;99.90
16700;DHT22;8466;52.286;21.124;2022-09-09T03:30:46;12.30;99.90
16700;DHT22;8466;52.286;21.124;2022-09-09T03:33:15;12.40;99.90
16700;DHT22;8466;52.286;21.124;2022-09-09T03:35:45;12.30;99.90
16700;DHT22;8466;52.286;21.124;2022-09-09T03:38:15;12.40;99.90
16700;DHT22;8466;52.286;21.124;2022-09-09T03:40:50;12.30;99.90
16700;DHT22;8466;52.286;21.124;2022-09-09T03:43:22;12.30;99.90
16700;DHT22;8466;52.286;21.124;2022-09-09T03:45:51;12.30;99.90
16700;DHT22;8466;52.286;21.124;2022-09-09T03:48:20;12.30;99.90
16700;DHT22;8466;52.286;21.124;2022-09-09T03:50:50;12.30;99.90
16700;DHT22;8466;52.286;21.124;2022-09-09T03:53:21;12.30;99.90
16700;DHT22;8466;52.286;21.124;2022-09-09T03:55:51;12.40;99.90
16700;DHT22;8466;52.286;21.124;2022-09-09T03:58:23;12.30;99.90
16700;DHT22;8466;52.286;21.124;2022-09-09T04:00:55;12.30;99.90
16700;DHT22;8466;52.286;21.124;2022-09-09T04:03:24;12.30;99.90
16700;DHT22;8466;52.286;21.124;2022-09-09T04:05:56;12.30;99.90
16700;DHT22;8466;52.286;21.124;2022-09-09T04:08:25;12.30;99.90
16700;DHT22;8466;52.286;21.124;2022-09-09T04:10:54;12.30;99.90
16700;DHT22;8466;52.286;21.124;2022-09-09T04:13:26;12.30;99.90
16700;DHT22;8466;52.286;21.124;2022-09-09T04:15:57;12.20;99.90
16700;DHT22;8466;52.286;21.124;2022-09-09T04:18:26;12.30;99.90
16700;DHT22;8466;52.286;21.124;2022-09-09T04:20:56;12.30;99.90
16700;DHT22;8466;52.286;21.124;2022-09-09T04:23:26;12.30;99.90
16700;DHT22;8466;52.286;21.124;2022-09-09T04:25:57;12.30;99.90
16700;DHT22;8466;52.286;21.124;2022-09-09T04:28:30;12.40;99.90
16700;DHT22;8466;52.286;21.124;2022-09-09T04:31:05;12.40;99.90
16700;DHT22;8466;52.286;21.124;2022-09-09T04:33:34;12.40;99.90
16700;DHT22;8466;52.286;21.124;2022-09-09T04:36:06;12.40;99.90
16700;DHT22;8466;52.286;21.124;2022-09-09T04:38:35;12.40;99.90
16700;DHT22;8466;52.286;21.124;2022-09-09T04:41:05;12.40;99.90
16700;DHT22;8466;52.286;21.124;2022-09-09T04:43:35;12.40;99.90
16700;DHT22;8466;52.286;21.124;2022-09-09T04:46:05;12.40;99.90
16700;DHT22;8466;52.286;21.124;2022-09-09T04:48:34;12.40;99.90
16700;DHT22;8466;52.286;21.124;2022-09-09T04:51:05;12.40;99.90
16700;DHT22;8466;52.286;21.124;2022-09-09T04:53:35;12.40;99.90
16700;DHT22;8466;52.286;21.124;2022-09-09T04:56:06;12.40;99.90
16700;DHT22;8466;52.286;21.124;2022-09-09T04:58:39;12.40;99.90
16700;DHT22;8466;52.286;21.124;2022-09-09T05:01:11;12.40;99.90
16700;DHT22;8466;52.286;21.124;2022-09-09T05:03:41;12.40;99.90
16700;DHT22;8466;52.286;21.124;2022-09-09T05:06:10;12.60;99.90
16700;DHT22;8466;52.286;21.124;2022-09-09T05:08:41;12.60;99.90
16700;DHT22;8466;52.286;21.124;2022-09-09T05:11:14;12.50;99.90
16700;DHT22;8466;52.286;21.124;2022-09-09T05:13:46;12.60;99.90
16700;DHT22;8466;52.286;21.124;2022-09-09T05:27:46;12.70;99.90
16700;DHT22;8466;52.286;21.124;2022-09-09T05:30:17;12.70;99.90
16700;DHT22;8466;52.286;21.124;2022-09-09T05:32:46;12.70;99.90
16700;DHT22;8466;52.286;21.124;2022-09-09T05:35:16;12.80;99.90
16700;DHT22;8466;52.286;21.124;2022-09-09T05:37:46;12.80;99.90
16700;DHT22;8466;52.286;21.124;2022-09-09T05:40:15;12.80;99.90
16700;DHT22;8466;52.286;21.124;2022-09-09T05:42:44;12.80;99.90
16700;DHT22;8466;52.286;21.124;2022-09-09T05:45:13;12.80;99.90
16700;DHT22;8466;52.286;21.124;2022-09-09T05:47:42;12.80;99.90
16700;DHT22;8466;52.286;21.124;2022-09-09T05:50:11;12.70;99.90
16700;DHT22;8466;52.286;21.124;2022-09-09T05:52:40;12.80;99.90
16700;DHT22;8466;52.286;21.124;2022-09-09T05:55:11;12.80;99.90
16700;DHT22;8466;52.286;21.124;2022-09-09T05:57:40;12.80;99.90
16700;DHT22;8466;52.286;21.124;2022-09-09T06:00:10;12.80;99.90
16700;DHT22;8466;52.286;21.124;2022-09-09T06:02:43;12.80;99.90
16700;DHT22;8466;52.286;21.124;2022-09-09T06:05:18;12.80;99.90
16700;DHT22;8466;52.286;21.124;2022-09-09T06:07:47;12.90;99.90
16700;DHT22;8466;52.286;21.124;2022-09-09T06:10:16;12.90;99.90
16700;DHT22;8466;52.286;21.124;2022-09-09T06:12:44;13.00;99.90
16700;DHT22;8466;52.286;21.124;2022-09-09T06:15:13;13.10;99.90
16700;DHT22;8466;52.286;21.124;2022-09-09T06:17:43;13.00;99.90
16700;DHT22;8466;52.286;21.124;2022-09-09T06:20:12;13.00;99.90
16700;DHT22;8466;52.286;21.124;2022-09-09T06:22:41;13.10;99.90
16700;DHT22;8466;52.286;21.124;2022-09-09T06:25:10;13.00;99.90
16700;DHT22;8466;52.286;21.124;2022-09-09T06:27:39;13.10;99.90
16700;DHT22;8466;52.286;21.124;2022-09-09T06:30:09;13.20;99.90
16700;DHT22;8466;52.286;21.124;2022-09-09T06:32:38;13.30;99.90
16700;DHT22;8466;52.286;21.124;2022-09-09T06:35:09;13.30;99.90
16700;DHT22;8466;52.286;21.124;2022-09-09T06:37:37;13.30;99.90
16700;DHT22;8466;52.286;21.124;2022-09-09T06:40:07;13.40;99.90
16700;DHT22;8466;52.286;21.124;2022-09-09T06:42:36;13.40;99.90
16700;DHT22;8466;52.286;21.124;2022-09-09T06:45:06;13.40;99.90
16700;DHT22;8466;52.286;21.124;2022-09-09T06:47:35;13.40;99.90
16700;DHT22;8466;52.286;21.124;2022-09-09T06:50:04;13.30;99.90
16700;DHT22;8466;52.286;21.124;2022-09-09T06:52:36;13.40;99.90
16700;DHT22;8466;52.286;21.124;2022-09-09T06:55:06;13.40;99.90
16700;DHT22;8466;52.286;21.124;2022-09-09T06:57:35;13.40;99.90
16700;DHT22;8466;52.286;21.124;2022-09-09T07:00:05;13.40;99.90
16700;DHT22;8466;52.286;21.124;2022-09-09T07:02:33;13.40;99.90
16700;DHT22;8466;52.286;21.124;2022-09-09T07:05:07;13.50;99.90
16700;DHT22;8466;52.286;21.124;2022-09-09T07:07:39;13.50;99.90
16700;DHT22;8466;52.286;21.124;2022-09-09T07:10:09;13.60;99.90
16700;DHT22;8466;52.286;21.124;2022-09-09T07:12:37;13.60;99.90
16700;DHT22;8466;52.286;21.124;2022-09-09T07:15:06;13.70;99.90
16700;DHT22;8466;52.286;21.124;2022-09-09T07:17:35;13.70;99.90
16700;DHT22;8466;52.286;21.124;2022-09-09T07:20:05;13.70;99.90
16700;DHT22;8466;52.286;21.124;2022-09-09T07:22:34;13.70;99.90
16700;DHT22;8466;52.286;21.124;2022-09-09T07:25:05;13.80;99.90
16700;DHT22;8466;52.286;21.124;2022-09-09T07:27:36;13.70;99.90
16700;DHT22;8466;52.286;21.124;2022-09-09T07:30:06;13.80;99.90
16700;DHT22;8466;52.286;21.124;2022-09-09T07:32:35;13.80;99.90
16700;DHT22;8466;52.286;21.124;2022-09-09T07:35:04;13.80;99.90
16700;DHT22;8466;52.286;21.124;2022-09-09T07:37:36;13.80;99.90
16700;DHT22;8466;52.286;21.124;2022-09-09T07:40:08;13.90;99.90
16700;DHT22;8466;52.286;21.124;2022-09-09T07:42:37;13.90;99.90
16700;DHT22;8466;52.286;21.124;2022-09-09T07:45:07;14.00;99.90
16700;DHT22;8466;52.286;21.124;2022-09-09T07:47:36;14.00;99.90
16700;DHT22;8466;52.286;21.124;2022-09-09T07:50:05;14.10;99.90
16700;DHT22;8466;52.286;21.124;2022-09-09T07:52:36;14.10;99.90
16700;DHT22;8466;52.286;21.124;2022-09-09T07:55:05;14.20;99.90
16700;DHT22;8466;52.286;21.124;2022-09-09T07:57:35;14.20;99.90
16700;DHT22;8466;52.286;21.124;2022-09-09T08:00:05;14.20;99.90
16700;DHT22;8466;52.286;21.124;2022-09-09T08:02:34;14.10;99.90
16700;DHT22;8466;52.286;21.124;2022-09-09T08:05:03;14.20;99.90
16700;DHT22;8466;52.286;21.124;2022-09-09T08:07:33;14.20;99.90
16700;DHT22;8466;52.286;21.124;2022-09-09T08:10:07;14.30;99.90
16700;DHT22;8466;52.286;21.124;2022-09-09T08:12:40;14.40;99.90
16700;DHT22;8466;52.286;21.124;2022-09-09T08:15:28;14.50;99.90
16700;DHT22;8466;52.286;21.124;2022-09-09T08:17:58;14.60;99.90
16700;DHT22;8466;52.286;21.124;2022-09-09T08:20:27;14.60;99.90
16700;DHT22;8466;52.286;21.124;2022-09-09T08:22:56;14.60;99.90
16700;DHT22;8466;52.286;21.124;2022-09-09T08:25:25;14.60;99.90
16700;DHT22;8466;52.286;21.124;2022-09-09T08:27:55;14.60;99.90
16700;DHT22;8466;52.286;21.124;2022-09-09T08:30:24;14.60;99.90
16700;DHT22;8466;52.286;21.124;2022-09-09T08:32:52;14.60;99.90
16700;DHT22;8466;52.286;21.124;2022-09-09T08:35:21;14.60;99.90
16700;DHT22;8466;52.286;21.124;2022-09-09T08:37:54;14.50;99.90
16700;DHT22;8466;52.286;21.124;2022-09-09T08:40:28;14.50;99.90
16700;DHT22;8466;52.286;21.124;2022-09-09T08:43:02;14.50;99.90
16700;DHT22;8466;52.286;21.124;2022-09-09T08:45:35;14.50;99.90
16700;DHT22;8466;52.286;21.124;2022-09-09T08:48:17;14.60;99.90
16700;DHT22;8466;52.286;21.124;2022-09-09T08:50:49;14.60;99.90
16700;DHT22;8466;52.286;21.124;2022-09-09T08:53:21;14.60;99.90
16700;DHT22;8466;52.286;21.124;2022-09-09T08:55:52;14.70;99.90
16700;DHT22;8466;52.286;21.124;2022-09-09T08:58:25;14.70;99.90
16700;DHT22;8466;52.286;21.124;2022-09-09T09:01:16;14.80;99.90
16700;DHT22;8466;52.286;21.124;2022-09-09T09:03:53;14.90;99.90
16700;DHT22;8466;52.286;21.124;2022-09-09T09:06:36;14.90;99.90
16700;DHT22;8466;52.286;21.124;2022-09-09T09:09:14;15.00;99.90
16700;DHT22;8466;52.286;21.124;2022-09-09T09:11:48;15.10;99.90
16700;DHT22;8466;52.286;21.124;2022-09-09T09:14:21;15.10;99.90
16700;DHT22;8466;52.286;21.124;2022-09-09T09:16:54;15.20;99.90
16700;DHT22;8466;52.286;21.124;2022-09-09T09:19:27;15.20;99.90
16700;DHT22;8466;52.286;21.124;2022-09-09T09:22:02;15.20;99.90
16700;DHT22;8466;52.286;21.124;2022-09-09T09:24:40;15.30;99.90
16700;DHT22;8466;52.286;21.124;2022-09-09T09:27:13;15.30;99.90
16700;DHT22;8466;52.286;21.124;2022-09-09T09:29:44;15.30;99.90
16700;DHT22;8466;52.286;21.124;2022-09-09T09:32:36;15.30;99.90
16700;DHT22;8466;52.286;21.124;2022-09-09T09:35:12;15.30;99.90
16700;DHT22;8466;52.286;21.124;2022-09-09T09:37:41;15.30;99.90
16700;DHT22;8466;52.286;21.124;2022-09-09T09:40:31;15.30;99.90
16700;DHT22;8466;52.286;21.124;2022-09-09T09:43:01;15.30;99.90
16700;DHT22;8466;52.286;21.124;2022-09-09T09:45:42;15.30;99.90
16700;DHT22;8466;52.286;21.124;2022-09-09T09:48:27;15.20;99.90
16700;DHT22;8466;52.286;21.124;2022-09-09T09:50:58;15.20;99.90
16700;DHT22;8466;52.286;21.124;2022-09-09T09:53:29;15.20;99.90
16700;DHT22;8466;52.286;21.124;2022-09-09T09:55:59;15.20;99.90
16700;DHT22;8466;52.286;21.124;2022-09-09T09:58:32;15.20;99.90
16700;DHT22;8466;52.286;21.124;2022-09-09T10:01:03;15.20;99.90
16700;DHT22;8466;52.286;21.124;2022-09-09T10:03:36;15.20;99.90
16700;DHT22;8466;52.286;21.124;2022-09-09T10:06:07;15.30;99.90
16700;DHT22;8466;52.286;21.124;2022-09-09T10:08:45;15.40;99.90
16700;DHT22;8466;52.286;21.124;2022-09-09T10:11:26;15.50;99.90
16700;DHT22;8466;52.286;21.124;2022-09-09T10:14:04;15.50;99.90
16700;DHT22;8466;52.286;21.124;2022-09-09T10:16:48;15.50;99.90
16700;DHT22;8466;52.286;21.124;2022-09-09T10:19:30;15.60;99.90
16700;DHT22;8466;52.286;21.124;2022-09-09T10:22:09;15.60;99.90
16700;DHT22;8466;52.286;21.124;2022-09-09T10:25:01;15.60;99.90
16700;DHT22;8466;52.286;21.124;2022-09-09T10:27:42;15.60;99.90
16700;DHT22;8466;52.286;21.124;2022-09-09T10:30:17;15.80;99.90
16700;DHT22;8466;52.286;21.124;2022-09-09T10:32:52;15.80;99.90
16700;DHT22;8466;52.286;21.124;2022-09-09T10:35:29;15.70;99.90
16700;DHT22;8466;52.286;21.124;2022-09-09T10:38:12;15.80;99.90
16700;DHT22;8466;52.286;21.124;2022-09-09T10:44:05;15.90;99.90
16700;DHT22;8466;52.286;21.124;2022-09-09T10:49:45;15.90;99.90
16700;DHT22;8466;52.286;21.124;2022-09-09T10:52:22;15.90;99.90
16700;DHT22;8466;52.286;21.124;2022-09-09T10:54:57;15.90;99.90
16700;DHT22;8466;52.286;21.124;2022-09-09T10:57:36;15.80;99.90
16700;DHT22;8466;52.286;21.124;2022-09-09T11:00:17;15.70;99.90
16700;DHT22;8466;52.286;21.124;2022-09-09T11:02:56;15.60;99.90
16700;DHT22;8466;52.286;21.124;2022-09-09T11:05:38;15.60;99.90
16700;DHT22;8466;52.286;21.124;2022-09-09T11:08:17;15.60;99.90
16700;DHT22;8466;52.286;21.124;2022-09-09T11:10:55;15.60;99.90
16700;DHT22;8466;52.286;21.124;2022-09-09T11:13:37;15.50;99.90
16700;DHT22;8466;52.286;21.124;2022-09-09T11:16:19;15.50;99.90
16700;DHT22;8466;52.286;21.124;2022-09-09T11:18:57;15.50;99.90
16700;DHT22;8466;52.286;21.124;2022-09-09T11:21:35;15.50;99.90
16700;DHT22;8466;52.286;21.124;2022-09-09T11:24:14;15.50;99.90
16700;DHT22;8466;52.286;21.124;2022-09-09T11:26:52;15.50;99.90
16700;DHT22;8466;52.286;21.124;2022-09-09T11:39:36;15.40;99.90
16700;DHT22;8466;52.286;21.124;2022-09-09T11:42:17;15.40;99.90
16700;DHT22;8466;52.286;21.124;2022-09-09T11:44:47;15.40;99.90
16700;DHT22;8466;52.286;21.124;2022-09-09T11:47:24;15.50;99.90
16700;DHT22;8466;52.286;21.124;2022-09-09T11:50:22;15.50;99.90
16700;DHT22;8466;52.286;21.124;2022-09-09T11:53:22;15.50;99.90
16700;DHT22;8466;52.286;21.124;2022-09-09T11:56:06;15.60;99.90
16700;DHT22;8466;52.286;21.124;2022-09-09T11:58:44;15.50;99.90
16700;DHT22;8466;52.286;21.124;2022-09-09T12:01:37;15.60;99.90
16700;DHT22;8466;52.286;21.124;2022-09-09T12:06:59;15.80;99.90
16700;DHT22;8466;52.286;21.124;2022-09-09T12:09:43;15.90;99.90
16700;DHT22;8466;52.286;21.124;2022-09-09T12:12:27;16.00;99.90
16700;DHT22;8466;52.286;21.124;2022-09-09T12:15:02;15.90;99.90
16700;DHT22;8466;52.286;21.124;2022-09-09T12:17:37;15.90;99.90
16700;DHT22;8466;52.286;21.124;2022-09-09T12:20:13;15.90;99.90
16700;DHT22;8466;52.286;21.124;2022-09-09T12:28:54;15.80;99.90
16700;DHT22;8466;52.286;21.124;2022-09-09T12:31:27;15.80;99.90
16700;DHT22;8466;52.286;21.124;2022-09-09T12:34:15;15.70;99.90
16700;DHT22;8466;52.286;21.124;2022-09-09T12:36:47;15.60;99.90
16700;DHT22;8466;52.286;21.124;2022-09-09T12:39:24;15.50;99.90
16700;DHT22;8466;52.286;21.124;2022-09-09T12:41:57;15.60;99.90
16700;DHT22;8466;52.286;21.124;2022-09-09T12:44:27;15.60;99.90
16700;DHT22;8466;52.286;21.124;2022-09-09T12:46:59;15.60;99.90
16700;DHT22;8466;52.286;21.124;2022-09-09T12:49:32;15.60;99.90
16700;DHT22;8466;52.286;21.124;2022-09-09T12:52:06;15.70;99.90
16700;DHT22;8466;52.286;21.124;2022-09-09T12:54:37;15.70;99.90
16700;DHT22;8466;52.286;21.124;2022-09-09T12:57:10;15.80;99.90
16700;DHT22;8466;52.286;21.124;2022-09-09T12:59:43;15.80;99.90
16700;DHT22;8466;52.286;21.124;2022-09-09T13:02:21;15.80;99.90
16700;DHT22;8466;52.286;21.124;2022-09-09T13:04:51;15.80;99.90
16700;DHT22;8466;52.286;21.124;2022-09-09T13:07:21;15.80;99.90
16700;DHT22;8466;52.286;21.124;2022-09-09T13:09:51;15.90;99.90
16700;DHT22;8466;52.286;21.124;2022-09-09T13:12:22;15.90;99.90
16700;DHT22;8466;52.286;21.124;2022-09-09T13:14:55;15.90;99.90
16700;DHT22;8466;52.286;21.124;2022-09-09T13:17:26;15.80;99.90
16700;DHT22;8466;52.286;21.124;2022-09-09T13:19:56;15.90;99.90
16700;DHT22;8466;52.286;21.124;2022-09-09T13:22:31;15.90;99.90
16700;DHT22;8466;52.286;21.124;2022-09-09T13:25:06;15.90;99.90
16700;DHT22;8466;52.286;21.124;2022-09-09T13:27:37;15.90;99.90
16700;DHT22;8466;52.286;21.124;2022-09-09T13:30:25;15.90;99.90
16700;DHT22;8466;52.286;21.124;2022-09-09T13:33:02;15.90;99.90
16700;DHT22;8466;52.286;21.124;2022-09-09T13:35:32;15.90;99.90
16700;DHT22;8466;52.286;21.124;2022-09-09T13:38:07;15.90;99.90
16700;DHT22;8466;52.286;21.124;2022-09-09T13:40:37;15.90;99.90
16700;DHT22;8466;52.286;21.124;2022-09-09T13:43:18;15.90;99.90
16700;DHT22;8466;52.286;21.124;2022-09-09T13:45:55;15.90;99.90
16700;DHT22;8466;52.286;21.124;2022-09-09T13:48:25;15.90;99.90
16700;DHT22;8466;52.286;21.124;2022-09-09T13:50:56;15.80;99.90
16700;DHT22;8466;52.286;21.124;2022-09-09T13:53:25;15.70;99.90
16700;DHT22;8466;52.286;21.124;2022-09-09T13:55:54;15.70;99.90
16700;DHT22;8466;52.286;21.124;2022-09-09T13:58:24;15.60;99.90
16700;DHT22;8466;52.286;21.124;2022-09-09T14:00:54;15.60;99.90
16700;DHT22;8466;52.286;21.124;2022-09-09T14:03:24;15.50;99.90
16700;DHT22;8466;52.286;21.124;2022-09-09T14:05:53;15.40;99.90
16700;DHT22;8466;52.286;21.124;2022-09-09T14:08:24;15.40;99.90
16700;DHT22;8466;52.286;21.124;2022-09-09T14:10:55;15.30;99.90
16700;DHT22;8466;52.286;21.124;2022-09-09T14:13:26;15.30;99.90
16700;DHT22;8466;52.286;21.124;2022-09-09T14:15:56;15.20;99.90
16700;DHT22;8466;52.286;21.124;2022-09-09T14:18:25;15.20;99.90
16700;DHT22;8466;52.286;21.124;2022-09-09T14:20:53;15.20;99.90
16700;DHT22;8466;52.286;21.124;2022-09-09T14:23:24;15.20;99.90
16700;DHT22;8466;52.286;21.124;2022-09-09T14:25:53;15.20;99.90
16700;DHT22;8466;52.286;21.124;2022-09-09T14:28:22;15.20;99.90
16700;DHT22;8466;52.286;21.124;2022-09-09T14:31:13;15.20;99.90
16700;DHT22;8466;52.286;21.124;2022-09-09T14:33:42;15.20;99.90
16700;DHT22;8466;52.286;21.124;2022-09-09T14:36:10;15.20;99.90
16700;DHT22;8466;52.286;21.124;2022-09-09T14:38:39;15.20;99.90
16700;DHT22;8466;52.286;21.124;2022-09-09T14:41:10;15.30;99.90
16700;DHT22;8466;52.286;21.124;2022-09-09T14:43:39;15.30;99.90
16700;DHT22;8466;52.286;21.124;2022-09-09T14:46:10;15.40;99.90
16700;DHT22;8466;52.286;21.124;2022-09-09T14:48:40;15.40;99.90
16700;DHT22;8466;52.286;21.124;2022-09-09T14:51:13;15.40;99.90
16700;DHT22;8466;52.286;21.124;2022-09-09T14:53:42;15.50;99.90
16700;DHT22;8466;52.286;21.124;2022-09-09T14:56:13;15.60;99.90
16700;DHT22;8466;52.286;21.124;2022-09-09T14:58:42;15.80;99.90
16700;DHT22;8466;52.286;21.124;2022-09-09T15:01:13;15.90;99.90
16700;DHT22;8466;52.286;21.124;2022-09-09T15:03:50;15.90;99.90
16700;DHT22;8466;52.286;21.124;2022-09-09T15:06:20;15.90;99.90
16700;DHT22;8466;52.286;21.124;2022-09-09T15:08:50;15.90;99.90
16700;DHT22;8466;52.286;21.124;2022-09-09T15:11:20;15.90;99.90
16700;DHT22;8466;52.286;21.124;2022-09-09T15:13:52;15.80;99.90
16700;DHT22;8466;52.286;21.124;2022-09-09T15:16:23;15.90;99.90
16700;DHT22;8466;52.286;21.124;2022-09-09T15:18:55;15.80;99.90
16700;DHT22;8466;52.286;21.124;2022-09-09T15:21:26;15.80;99.90
16700;DHT22;8466;52.286;21.124;2022-09-09T15:23:56;15.70;99.90
16700;DHT22;8466;52.286;21.124;2022-09-09T15:26:25;15.70;99.90
16700;DHT22;8466;52.286;21.124;2022-09-09T15:28:54;15.70;99.90
16700;DHT22;8466;52.286;21.124;2022-09-09T15:31:26;15.70;99.90
16700;DHT22;8466;52.286;21.124;2022-09-09T15:33:58;15.70;99.90
16700;DHT22;8466;52.286;21.124;2022-09-09T15:36:30;15.60;99.90
16700;DHT22;8466;52.286;21.124;2022-09-09T15:38:59;15.50;99.90
16700;DHT22;8466;52.286;21.124;2022-09-09T15:41:28;15.50;99.90
16700;DHT22;8466;52.286;21.124;2022-09-09T15:43:58;15.40;99.90
16700;DHT22;8466;52.286;21.124;2022-09-09T15:46:29;15.30;99.90
16700;DHT22;8466;52.286;21.124;2022-09-09T15:49:05;15.30;99.90
16700;DHT22;8466;52.286;21.124;2022-09-09T15:51:37;15.20;99.90
16700;DHT22;8466;52.286;21.124;2022-09-09T15:54:10;15.20;99.90
16700;DHT22;8466;52.286;21.124;2022-09-09T15:56:40;15.20;99.90
16700;DHT22;8466;52.286;21.124;2022-09-09T15:59:09;15.20;99.90
16700;DHT22;8466;52.286;21.124;2022-09-09T16:01:38;15.10;99.90
16700;DHT22;8466;52.286;21.124;2022-09-09T16:04:09;15.00;99.90
16700;DHT22;8466;52.286;21.124;2022-09-09T16:06:38;15.00;99.90
16700;DHT22;8466;52.286;21.124;2022-09-09T16:09:10;15.00;99.90
16700;DHT22;8466;52.286;21.124;2022-09-09T16:11:39;15.00;99.90
16700;DHT22;8466;52.286;21.124;2022-09-09T16:14:08;14.80;99.90
16700;DHT22;8466;52.286;21.124;2022-09-09T16:16:38;14.80;99.90
16700;DHT22;8466;52.286;21.124;2022-09-09T16:19:10;14.80;99.90
16700;DHT22;8466;52.286;21.124;2022-09-09T16:21:42;14.70;99.90
16700;DHT22;8466;52.286;21.124;2022-09-09T16:24:12;14.80;99.90
16700;DHT22;8466;52.286;21.124;2022-09-09T16:26:43;14.80;99.90
16700;DHT22;8466;52.286;21.124;2022-09-09T16:29:13;14.80;99.90
16700;DHT22;8466;52.286;21.124;2022-09-09T16:31:43;14.80;99.90
16700;DHT22;8466;52.286;21.124;2022-09-09T16:34:15;14.80;99.90
16700;DHT22;8466;52.286;21.124;2022-09-09T16:36:44;14.80;99.90
16700;DHT22;8466;52.286;21.124;2022-09-09T16:39:14;14.80;99.90
16700;DHT22;8466;52.286;21.124;2022-09-09T16:41:44;14.70;99.90